sensor_id;sensor_type;location;lat;lon;timestamp;P1;durP1;ratioP1;P2;durP2;ratioP2
16770;SDS011;8503;52.472;13.344;2023-01-09T00:01:12;7.13;;;4.72;;
16770;SDS011;8503;52.472;13.344;2023-01-09T00:02:37;7.78;;;4.68;;
16770;SDS011;8503;52.472;13.344;2023-01-09T00:04:01;10.45;;;5.60;;
16770;SDS011;8503;52.472;13.344;2023-01-09T00:05:25;10.80;;;5.80;;
16770;SDS011;8503;52.472;13.344;2023-01-09T00:06:48;8.07;;;4.97;;
16770;SDS011;8503;52.472;13.344;2023-01-09T00:08:15;12.35;;;6.25;;
16770;SDS011;8503;52.472;13.344;2023-01-09T00:09:38;7.25;;;5.32;;
16770;SDS011;8503;52.472;13.344;2023-01-09T00:11:02;9.52;;;5.60;;
16770;SDS011;8503;52.472;13.344;2023-01-09T00:12:26;11.20;;;5.85;;
16770;SDS011;8503;52.472;13.344;2023-01-09T00:13:49;8.82;;;5.18;;
16770;SDS011;8503;52.472;13.344;2023-01-09T00:15:13;9.43;;;5.65;;
16770;SDS011;8503;52.472;13.344;2023-01-09T00:16:36;7.43;;;5.35;;
16770;SDS011;8503;52.472;13.344;2023-01-09T00:18:01;10.43;;;5.70;;
16770;SDS011;8503;52.472;13.344;2023-01-09T00:19:25;10.10;;;5.38;;
16770;SDS011;8503;52.472;13.344;2023-01-09T00:20:48;9.73;;;5.38;;
16770;SDS011;8503;52.472;13.344;2023-01-09T00:22:12;8.77;;;5.03;;
16770;SDS011;8503;52.472;13.344;2023-01-09T00:23:36;9.43;;;5.00;;
16770;SDS011;8503;52.472;13.344;2023-01-09T00:24:59;10.45;;;5.72;;
16770;SDS011;8503;52.472;13.344;2023-01-09T00:26:22;7.95;;;4.97;;
16770;SDS011;8503;52.472;13.344;2023-01-09T00:27:45;9.95;;;5.22;;
16770;SDS011;8503;52.472;13.344;2023-01-09T00:29:09;7.43;;;5.20;;
16770;SDS011;8503;52.472;13.344;2023-01-09T00:30:33;8.85;;;5.78;;
16770;SDS011;8503;52.472;13.344;2023-01-09T00:31:57;9.65;;;5.40;;
16770;SDS011;8503;52.472;13.344;2023-01-09T00:33:23;9.35;;;6.03;;
16770;SDS011;8503;52.472;13.344;2023-01-09T00:34:49;11.30;;;5.50;;
16770;SDS011;8503;52.472;13.344;2023-01-09T00:36:13;8.93;;;5.57;;
16770;SDS011;8503;52.472;13.344;2023-01-09T00:37:35;9.60;;;5.78;;
16770;SDS011;8503;52.472;13.344;2023-01-09T00:38:59;11.75;;;6.20;;
16770;SDS011;8503;52.472;13.344;2023-01-09T00:40:21;8.95;;;5.78;;
16770;SDS011;8503;52.472;13.344;2023-01-09T00:41:46;8.35;;;5.57;;
16770;SDS011;8503;52.472;13.344;2023-01-09T00:43:11;12.15;;;6.15;;
16770;SDS011;8503;52.472;13.344;2023-01-09T00:44:36;9.93;;;6.13;;
16770;SDS011;8503;52.472;13.344;2023-01-09T00:46:02;9.80;;;5.38;;
16770;SDS011;8503;52.472;13.344;2023-01-09T00:47:26;8.40;;;5.65;;
16770;SDS011;8503;52.472;13.344;2023-01-09T00:48:54;9.85;;;5.70;;
16770;SDS011;8503;52.472;13.344;2023-01-09T00:50:18;8.60;;;5.85;;
16770;SDS011;8503;52.472;13.344;2023-01-09T00:51:44;8.98;;;5.13;;
16770;SDS011;8503;52.472;13.344;2023-01-09T00:53:08;10.02;;;5.32;;
16770;SDS011;8503;52.472;13.344;2023-01-09T00:54:33;8.70;;;5.15;;
16770;SDS011;8503;52.472;13.344;2023-01-09T00:55:58;8.45;;;5.43;;
16770;SDS011;8503;52.472;13.344;2023-01-09T00:57:22;12.00;;;6.65;;
16770;SDS011;8503;52.472;13.344;2023-01-09T00:58:45;10.13;;;5.50;;
16770;SDS011;8503;52.472;13.344;2023-01-09T01:00:10;7.57;;;4.95;;
16770;SDS011;8503;52.472;13.344;2023-01-09T01:01:34;8.75;;;6.10;;
16770;SDS011;8503;52.472;13.344;2023-01-09T01:02:58;9.40;;;6.07;;
16770;SDS011;8503;52.472;13.344;2023-01-09T01:04:22;11.52;;;5.78;;
16770;SDS011;8503;52.472;13.344;2023-01-09T01:06:03;8.20;;;4.53;;
16770;SDS011;8503;52.472;13.344;2023-01-09T01:07:45;10.10;;;6.32;;
16770;SDS011;8503;52.472;13.344;2023-01-09T01:09:09;11.07;;;5.82;;
16770;SDS011;8503;52.472;13.344;2023-01-09T01:10:32;9.48;;;6.25;;
16770;SDS011;8503;52.472;13.344;2023-01-09T01:11:56;10.63;;;5.90;;
16770;SDS011;8503;52.472;13.344;2023-01-09T01:13:19;11.40;;;7.15;;
16770;SDS011;8503;52.472;13.344;2023-01-09T01:14:43;11.45;;;6.88;;
16770;SDS011;8503;52.472;13.344;2023-01-09T01:16:07;11.57;;;6.45;;
16770;SDS011;8503;52.472;13.344;2023-01-09T01:17:32;9.75;;;6.45;;
16770;SDS011;8503;52.472;13.344;2023-01-09T01:18:55;9.55;;;6.10;;
16770;SDS011;8503;52.472;13.344;2023-01-09T01:20:20;9.73;;;5.95;;
16770;SDS011;8503;52.472;13.344;2023-01-09T01:21:43;12.00;;;6.32;;
16770;SDS011;8503;52.472;13.344;2023-01-09T01:23:06;12.35;;;6.93;;
16770;SDS011;8503;52.472;13.344;2023-01-09T01:24:30;12.10;;;6.72;;
16770;SDS011;8503;52.472;13.344;2023-01-09T01:25:53;12.73;;;7.47;;
16770;SDS011;8503;52.472;13.344;2023-01-09T01:27:16;12.35;;;6.68;;
16770;SDS011;8503;52.472;13.344;2023-01-09T01:28:40;10.38;;;6.90;;
16770;SDS011;8503;52.472;13.344;2023-01-09T01:30:04;10.30;;;6.47;;
16770;SDS011;8503;52.472;13.344;2023-01-09T01:31:28;11.45;;;6.68;;
16770;SDS011;8503;52.472;13.344;2023-01-09T01:32:52;12.75;;;7.30;;
16770;SDS011;8503;52.472;13.344;2023-01-09T01:34:16;10.38;;;6.43;;
16770;SDS011;8503;52.472;13.344;2023-01-09T01:35:39;17.33;;;7.82;;
16770;SDS011;8503;52.472;13.344;2023-01-09T01:37:04;11.93;;;6.78;;
16770;SDS011;8503;52.472;13.344;2023-01-09T01:38:27;10.45;;;7.15;;
16770;SDS011;8503;52.472;13.344;2023-01-09T01:39:51;12.68;;;6.75;;
16770;SDS011;8503;52.472;13.344;2023-01-09T01:41:13;10.88;;;5.88;;
16770;SDS011;8503;52.472;13.344;2023-01-09T01:42:50;11.15;;;6.53;;
16770;SDS011;8503;52.472;13.344;2023-01-09T01:46:15;10.50;;;6.28;;
16770;SDS011;8503;52.472;13.344;2023-01-09T01:47:41;15.13;;;7.93;;
16770;SDS011;8503;52.472;13.344;2023-01-09T01:49:08;12.35;;;7.07;;
16770;SDS011;8503;52.472;13.344;2023-01-09T01:50:35;11.00;;;6.47;;
16770;SDS011;8503;52.472;13.344;2023-01-09T01:52:02;12.02;;;7.15;;
16770;SDS011;8503;52.472;13.344;2023-01-09T01:53:26;13.73;;;6.93;;
16770;SDS011;8503;52.472;13.344;2023-01-09T01:54:52;11.77;;;6.32;;
16770;SDS011;8503;52.472;13.344;2023-01-09T01:56:16;10.57;;;6.93;;
16770;SDS011;8503;52.472;13.344;2023-01-09T01:57:41;10.68;;;6.38;;
16770;SDS011;8503;52.472;13.344;2023-01-09T01:59:09;11.98;;;7.88;;
16770;SDS011;8503;52.472;13.344;2023-01-09T02:00:37;12.43;;;7.13;;
16770;SDS011;8503;52.472;13.344;2023-01-09T02:02:02;12.07;;;6.95;;
16770;SDS011;8503;52.472;13.344;2023-01-09T02:03:26;11.00;;;7.18;;
16770;SDS011;8503;52.472;13.344;2023-01-09T02:04:51;10.15;;;6.05;;
16770;SDS011;8503;52.472;13.344;2023-01-09T02:06:15;12.60;;;6.97;;
16770;SDS011;8503;52.472;13.344;2023-01-09T02:07:40;11.13;;;6.80;;
16770;SDS011;8503;52.472;13.344;2023-01-09T02:09:03;10.93;;;6.82;;
16770;SDS011;8503;52.472;13.344;2023-01-09T02:10:27;11.68;;;7.13;;
16770;SDS011;8503;52.472;13.344;2023-01-09T02:11:51;11.40;;;7.13;;
16770;SDS011;8503;52.472;13.344;2023-01-09T02:13:16;14.73;;;7.43;;
16770;SDS011;8503;52.472;13.344;2023-01-09T02:14:46;11.75;;;6.45;;
16770;SDS011;8503;52.472;13.344;2023-01-09T02:16:18;10.88;;;5.93;;
16770;SDS011;8503;52.472;13.344;2023-01-09T02:17:55;13.02;;;6.70;;
16770;SDS011;8503;52.472;13.344;2023-01-09T02:19:30;13.52;;;7.63;;
16770;SDS011;8503;52.472;13.344;2023-01-09T02:21:08;12.43;;;7.35;;
16770;SDS011;8503;52.472;13.344;2023-01-09T02:22:39;17.13;;;6.90;;
16770;SDS011;8503;52.472;13.344;2023-01-09T02:24:19;12.13;;;7.18;;
16770;SDS011;8503;52.472;13.344;2023-01-09T02:26:10;13.93;;;7.85;;
16770;SDS011;8503;52.472;13.344;2023-01-09T02:27:50;11.55;;;6.70;;
16770;SDS011;8503;52.472;13.344;2023-01-09T02:31:34;12.10;;;7.20;;
16770;SDS011;8503;52.472;13.344;2023-01-09T02:33:07;12.00;;;6.30;;
16770;SDS011;8503;52.472;13.344;2023-01-09T02:34:44;13.63;;;7.40;;
16770;SDS011;8503;52.472;13.344;2023-01-09T02:36:15;13.35;;;7.75;;
16770;SDS011;8503;52.472;13.344;2023-01-09T02:37:44;14.00;;;6.95;;
16770;SDS011;8503;52.472;13.344;2023-01-09T02:39:14;10.80;;;6.30;;
16770;SDS011;8503;52.472;13.344;2023-01-09T02:40:43;10.43;;;6.72;;
16770;SDS011;8503;52.472;13.344;2023-01-09T02:42:12;10.93;;;6.85;;
16770;SDS011;8503;52.472;13.344;2023-01-09T02:43:37;13.52;;;7.45;;
16770;SDS011;8503;52.472;13.344;2023-01-09T02:45:02;13.88;;;7.90;;
16770;SDS011;8503;52.472;13.344;2023-01-09T02:46:25;11.25;;;7.07;;
16770;SDS011;8503;52.472;13.344;2023-01-09T02:47:49;15.82;;;7.40;;
16770;SDS011;8503;52.472;13.344;2023-01-09T02:49:12;9.65;;;6.38;;
16770;SDS011;8503;52.472;13.344;2023-01-09T02:50:39;12.73;;;6.88;;
16770;SDS011;8503;52.472;13.344;2023-01-09T02:52:09;12.25;;;6.65;;
16770;SDS011;8503;52.472;13.344;2023-01-09T02:55:25;15.85;;;7.55;;
16770;SDS011;8503;52.472;13.344;2023-01-09T02:56:58;13.30;;;6.90;;
16770;SDS011;8503;52.472;13.344;2023-01-09T02:58:42;14.90;;;8.18;;
16770;SDS011;8503;52.472;13.344;2023-01-09T03:00:19;13.50;;;7.90;;
16770;SDS011;8503;52.472;13.344;2023-01-09T03:01:54;16.23;;;8.43;;
16770;SDS011;8503;52.472;13.344;2023-01-09T03:03:25;16.33;;;6.75;;
16770;SDS011;8503;52.472;13.344;2023-01-09T03:04:55;12.98;;;8.07;;
16770;SDS011;8503;52.472;13.344;2023-01-09T03:06:22;16.45;;;8.38;;
16770;SDS011;8503;52.472;13.344;2023-01-09T03:07:52;12.32;;;6.88;;
16770;SDS011;8503;52.472;13.344;2023-01-09T03:09:21;13.95;;;7.38;;
16770;SDS011;8503;52.472;13.344;2023-01-09T03:10:47;11.25;;;6.13;;
16770;SDS011;8503;52.472;13.344;2023-01-09T03:12:14;13.77;;;7.65;;
16770;SDS011;8503;52.472;13.344;2023-01-09T03:13:40;13.95;;;7.82;;
16770;SDS011;8503;52.472;13.344;2023-01-09T03:15:06;14.18;;;7.93;;
16770;SDS011;8503;52.472;13.344;2023-01-09T03:16:34;14.07;;;7.72;;
16770;SDS011;8503;52.472;13.344;2023-01-09T03:17:58;13.65;;;8.10;;
16770;SDS011;8503;52.472;13.344;2023-01-09T03:19:24;12.52;;;8.18;;
16770;SDS011;8503;52.472;13.344;2023-01-09T03:20:49;13.55;;;7.93;;
16770;SDS011;8503;52.472;13.344;2023-01-09T03:22:13;14.32;;;8.05;;
16770;SDS011;8503;52.472;13.344;2023-01-09T03:23:46;14.68;;;8.20;;
16770;SDS011;8503;52.472;13.344;2023-01-09T03:25:10;17.65;;;7.60;;
16770;SDS011;8503;52.472;13.344;2023-01-09T03:26:35;16.08;;;8.48;;
16770;SDS011;8503;52.472;13.344;2023-01-09T03:28:00;12.48;;;8.32;;
16770;SDS011;8503;52.472;13.344;2023-01-09T03:29:26;23.88;;;9.65;;
16770;SDS011;8503;52.472;13.344;2023-01-09T03:30:50;15.73;;;8.88;;
16770;SDS011;8503;52.472;13.344;2023-01-09T03:32:13;14.82;;;8.32;;
16770;SDS011;8503;52.472;13.344;2023-01-09T03:33:37;14.85;;;8.05;;
16770;SDS011;8503;52.472;13.344;2023-01-09T03:35:01;13.38;;;8.23;;
16770;SDS011;8503;52.472;13.344;2023-01-09T03:36:24;13.00;;;8.23;;
16770;SDS011;8503;52.472;13.344;2023-01-09T03:37:49;18.73;;;8.48;;
16770;SDS011;8503;52.472;13.344;2023-01-09T03:39:12;14.10;;;8.10;;
16770;SDS011;8503;52.472;13.344;2023-01-09T03:40:35;12.40;;;8.00;;
16770;SDS011;8503;52.472;13.344;2023-01-09T03:41:59;18.88;;;9.07;;
16770;SDS011;8503;52.472;13.344;2023-01-09T03:43:22;15.30;;;8.93;;
16770;SDS011;8503;52.472;13.344;2023-01-09T03:44:45;10.63;;;7.05;;
16770;SDS011;8503;52.472;13.344;2023-01-09T03:46:11;13.57;;;8.80;;
16770;SDS011;8503;52.472;13.344;2023-01-09T03:47:34;13.18;;;8.18;;
16770;SDS011;8503;52.472;13.344;2023-01-09T03:48:57;13.88;;;7.97;;
16770;SDS011;8503;52.472;13.344;2023-01-09T03:50:22;13.45;;;8.63;;
16770;SDS011;8503;52.472;13.344;2023-01-09T03:51:45;13.57;;;8.13;;
16770;SDS011;8503;52.472;13.344;2023-01-09T03:53:09;16.75;;;8.75;;
16770;SDS011;8503;52.472;13.344;2023-01-09T03:54:33;12.60;;;7.63;;
16770;SDS011;8503;52.472;13.344;2023-01-09T03:55:56;14.05;;;8.13;;
16770;SDS011;8503;52.472;13.344;2023-01-09T03:57:20;14.02;;;8.52;;
16770;SDS011;8503;52.472;13.344;2023-01-09T03:58:44;13.30;;;8.15;;
16770;SDS011;8503;52.472;13.344;2023-01-09T04:00:10;12.93;;;8.15;;
16770;SDS011;8503;52.472;13.344;2023-01-09T04:01:33;11.55;;;8.20;;
16770;SDS011;8503;52.472;13.344;2023-01-09T04:02:57;13.80;;;8.23;;
16770;SDS011;8503;52.472;13.344;2023-01-09T04:04:21;11.32;;;7.30;;
16770;SDS011;8503;52.472;13.344;2023-01-09T04:05:46;14.52;;;8.23;;
16770;SDS011;8503;52.472;13.344;2023-01-09T04:07:10;12.63;;;7.28;;
16770;SDS011;8503;52.472;13.344;2023-01-09T04:08:34;16.70;;;8.23;;
16770;SDS011;8503;52.472;13.344;2023-01-09T04:09:57;13.90;;;8.05;;
16770;SDS011;8503;52.472;13.344;2023-01-09T04:11:21;14.95;;;8.73;;
16770;SDS011;8503;52.472;13.344;2023-01-09T04:12:44;13.75;;;8.27;;
16770;SDS011;8503;52.472;13.344;2023-01-09T04:14:07;19.42;;;8.75;;
16770;SDS011;8503;52.472;13.344;2023-01-09T04:15:31;13.07;;;7.82;;
16770;SDS011;8503;52.472;13.344;2023-01-09T04:16:53;12.93;;;8.25;;
16770;SDS011;8503;52.472;13.344;2023-01-09T04:18:17;15.57;;;9.20;;
16770;SDS011;8503;52.472;13.344;2023-01-09T04:19:39;14.43;;;8.15;;
16770;SDS011;8503;52.472;13.344;2023-01-09T04:21:04;12.73;;;7.72;;
16770;SDS011;8503;52.472;13.344;2023-01-09T04:22:27;14.52;;;8.13;;
16770;SDS011;8503;52.472;13.344;2023-01-09T04:23:51;18.13;;;9.00;;
16770;SDS011;8503;52.472;13.344;2023-01-09T04:25:15;14.57;;;9.00;;
16770;SDS011;8503;52.472;13.344;2023-01-09T04:26:37;13.55;;;8.57;;
16770;SDS011;8503;52.472;13.344;2023-01-09T04:28:01;13.18;;;8.07;;
16770;SDS011;8503;52.472;13.344;2023-01-09T04:29:24;15.02;;;8.57;;
16770;SDS011;8503;52.472;13.344;2023-01-09T04:30:48;15.80;;;8.30;;
16770;SDS011;8503;52.472;13.344;2023-01-09T04:32:11;15.20;;;8.55;;
16770;SDS011;8503;52.472;13.344;2023-01-09T04:33:35;14.18;;;8.75;;
16770;SDS011;8503;52.472;13.344;2023-01-09T04:34:59;14.77;;;7.50;;
16770;SDS011;8503;52.472;13.344;2023-01-09T04:36:22;13.23;;;8.38;;
16770;SDS011;8503;52.472;13.344;2023-01-09T04:37:46;13.00;;;8.57;;
16770;SDS011;8503;52.472;13.344;2023-01-09T04:39:36;12.65;;;7.90;;
16770;SDS011;8503;52.472;13.344;2023-01-09T04:41:01;14.30;;;8.77;;
16770;SDS011;8503;52.472;13.344;2023-01-09T04:42:24;9.18;;;6.07;;
16770;SDS011;8503;52.472;13.344;2023-01-09T04:43:47;13.48;;;8.18;;
16770;SDS011;8503;52.472;13.344;2023-01-09T04:45:11;12.07;;;7.65;;
16770;SDS011;8503;52.472;13.344;2023-01-09T04:46:35;14.82;;;7.85;;
16770;SDS011;8503;52.472;13.344;2023-01-09T04:47:58;12.80;;;7.78;;
16770;SDS011;8503;52.472;13.344;2023-01-09T04:49:21;12.65;;;7.82;;
16770;SDS011;8503;52.472;13.344;2023-01-09T04:50:45;11.50;;;7.57;;
16770;SDS011;8503;52.472;13.344;2023-01-09T04:52:10;13.60;;;8.43;;
16770;SDS011;8503;52.472;13.344;2023-01-09T04:53:33;14.02;;;7.03;;
16770;SDS011;8503;52.472;13.344;2023-01-09T04:54:57;11.73;;;7.10;;
16770;SDS011;8503;52.472;13.344;2023-01-09T04:56:21;12.80;;;7.00;;
16770;SDS011;8503;52.472;13.344;2023-01-09T04:57:43;12.30;;;8.45;;
16770;SDS011;8503;52.472;13.344;2023-01-09T04:59:07;15.20;;;8.07;;
16770;SDS011;8503;52.472;13.344;2023-01-09T05:00:30;13.45;;;7.57;;
16770;SDS011;8503;52.472;13.344;2023-01-09T05:01:54;15.18;;;8.10;;
16770;SDS011;8503;52.472;13.344;2023-01-09T05:03:18;11.93;;;7.55;;
16770;SDS011;8503;52.472;13.344;2023-01-09T05:04:42;13.30;;;7.60;;
16770;SDS011;8503;52.472;13.344;2023-01-09T05:06:05;14.27;;;7.78;;
16770;SDS011;8503;52.472;13.344;2023-01-09T05:07:30;13.43;;;7.72;;
16770;SDS011;8503;52.472;13.344;2023-01-09T05:08:54;15.05;;;8.77;;
16770;SDS011;8503;52.472;13.344;2023-01-09T05:10:17;15.50;;;8.30;;
16770;SDS011;8503;52.472;13.344;2023-01-09T05:11:41;13.00;;;7.45;;
16770;SDS011;8503;52.472;13.344;2023-01-09T05:13:03;12.60;;;6.93;;
16770;SDS011;8503;52.472;13.344;2023-01-09T05:14:27;16.65;;;8.73;;
16770;SDS011;8503;52.472;13.344;2023-01-09T05:15:49;13.15;;;8.13;;
16770;SDS011;8503;52.472;13.344;2023-01-09T05:17:13;11.93;;;8.43;;
16770;SDS011;8503;52.472;13.344;2023-01-09T05:18:36;12.40;;;8.48;;
16770;SDS011;8503;52.472;13.344;2023-01-09T05:20:00;15.70;;;8.60;;
16770;SDS011;8503;52.472;13.344;2023-01-09T05:21:23;12.35;;;7.75;;
16770;SDS011;8503;52.472;13.344;2023-01-09T05:22:48;12.73;;;8.15;;
16770;SDS011;8503;52.472;13.344;2023-01-09T05:24:12;17.63;;;8.77;;
16770;SDS011;8503;52.472;13.344;2023-01-09T05:25:34;13.65;;;7.95;;
16770;SDS011;8503;52.472;13.344;2023-01-09T05:26:58;12.65;;;7.65;;
16770;SDS011;8503;52.472;13.344;2023-01-09T05:28:22;12.77;;;7.88;;
16770;SDS011;8503;52.472;13.344;2023-01-09T05:29:46;16.42;;;8.98;;
16770;SDS011;8503;52.472;13.344;2023-01-09T05:31:09;14.18;;;7.80;;
16770;SDS011;8503;52.472;13.344;2023-01-09T05:32:34;13.02;;;8.20;;
16770;SDS011;8503;52.472;13.344;2023-01-09T05:33:58;14.93;;;8.63;;
16770;SDS011;8503;52.472;13.344;2023-01-09T05:35:21;11.93;;;7.35;;
16770;SDS011;8503;52.472;13.344;2023-01-09T05:36:45;14.60;;;8.32;;
16770;SDS011;8503;52.472;13.344;2023-01-09T05:38:10;12.85;;;8.02;;
16770;SDS011;8503;52.472;13.344;2023-01-09T05:39:32;14.30;;;7.20;;
16770;SDS011;8503;52.472;13.344;2023-01-09T05:40:57;15.90;;;8.48;;
16770;SDS011;8503;52.472;13.344;2023-01-09T05:42:20;13.80;;;8.52;;
16770;SDS011;8503;52.472;13.344;2023-01-09T05:43:44;14.32;;;8.02;;
16770;SDS011;8503;52.472;13.344;2023-01-09T05:45:06;12.93;;;7.45;;
16770;SDS011;8503;52.472;13.344;2023-01-09T05:46:31;18.70;;;7.53;;
16770;SDS011;8503;52.472;13.344;2023-01-09T05:47:54;15.25;;;7.40;;
16770;SDS011;8503;52.472;13.344;2023-01-09T05:49:18;13.30;;;7.72;;
16770;SDS011;8503;52.472;13.344;2023-01-09T05:50:41;12.98;;;8.50;;
16770;SDS011;8503;52.472;13.344;2023-01-09T05:52:04;12.63;;;8.05;;
16770;SDS011;8503;52.472;13.344;2023-01-09T05:53:29;12.38;;;7.45;;
16770;SDS011;8503;52.472;13.344;2023-01-09T05:54:52;15.23;;;8.50;;
16770;SDS011;8503;52.472;13.344;2023-01-09T05:56:16;15.20;;;8.82;;
16770;SDS011;8503;52.472;13.344;2023-01-09T05:57:38;11.20;;;8.27;;
16770;SDS011;8503;52.472;13.344;2023-01-09T05:59:02;12.05;;;8.20;;
16770;SDS011;8503;52.472;13.344;2023-01-09T06:00:26;11.13;;;7.28;;
16770;SDS011;8503;52.472;13.344;2023-01-09T06:01:49;14.05;;;8.32;;
16770;SDS011;8503;52.472;13.344;2023-01-09T06:03:14;16.30;;;8.35;;
16770;SDS011;8503;52.472;13.344;2023-01-09T06:04:38;14.25;;;7.95;;
16770;SDS011;8503;52.472;13.344;2023-01-09T06:06:04;18.80;;;8.68;;
16770;SDS011;8503;52.472;13.344;2023-01-09T06:07:27;14.88;;;7.82;;
16770;SDS011;8503;52.472;13.344;2023-01-09T06:08:51;15.70;;;8.82;;
16770;SDS011;8503;52.472;13.344;2023-01-09T06:10:15;17.58;;;8.55;;
16770;SDS011;8503;52.472;13.344;2023-01-09T06:11:39;15.25;;;8.05;;
16770;SDS011;8503;52.472;13.344;2023-01-09T06:13:02;17.95;;;9.90;;
16770;SDS011;8503;52.472;13.344;2023-01-09T06:14:26;14.32;;;8.15;;
16770;SDS011;8503;52.472;13.344;2023-01-09T06:15:50;14.27;;;8.25;;
16770;SDS011;8503;52.472;13.344;2023-01-09T06:17:13;9.93;;;6.10;;
16770;SDS011;8503;52.472;13.344;2023-01-09T06:18:36;13.15;;;7.70;;
16770;SDS011;8503;52.472;13.344;2023-01-09T06:20:00;18.02;;;8.00;;
16770;SDS011;8503;52.472;13.344;2023-01-09T06:21:24;19.20;;;8.38;;
16770;SDS011;8503;52.472;13.344;2023-01-09T06:22:49;13.93;;;7.80;;
16770;SDS011;8503;52.472;13.344;2023-01-09T06:24:14;12.32;;;7.75;;
16770;SDS011;8503;52.472;13.344;2023-01-09T06:25:38;13.52;;;7.75;;
16770;SDS011;8503;52.472;13.344;2023-01-09T06:27:01;11.68;;;7.25;;
16770;SDS011;8503;52.472;13.344;2023-01-09T06:28:26;13.27;;;7.88;;
16770;SDS011;8503;52.472;13.344;2023-01-09T06:29:50;13.57;;;6.68;;
16770;SDS011;8503;52.472;13.344;2023-01-09T06:31:13;14.75;;;8.23;;
16770;SDS011;8503;52.472;13.344;2023-01-09T06:32:37;10.60;;;6.75;;
16770;SDS011;8503;52.472;13.344;2023-01-09T06:34:00;15.13;;;8.07;;
16770;SDS011;8503;52.472;13.344;2023-01-09T06:35:24;12.23;;;7.97;;
16770;SDS011;8503;52.472;13.344;2023-01-09T06:36:47;17.10;;;8.02;;
16770;SDS011;8503;52.472;13.344;2023-01-09T06:38:11;17.95;;;8.55;;
16770;SDS011;8503;52.472;13.344;2023-01-09T06:39:35;17.85;;;8.40;;
16770;SDS011;8503;52.472;13.344;2023-01-09T06:40:59;12.25;;;6.55;;
16770;SDS011;8503;52.472;13.344;2023-01-09T06:42:22;12.45;;;8.38;;
16770;SDS011;8503;52.472;13.344;2023-01-09T06:43:46;13.77;;;7.65;;
16770;SDS011;8503;52.472;13.344;2023-01-09T06:45:09;14.70;;;8.20;;
16770;SDS011;8503;52.472;13.344;2023-01-09T06:46:32;16.63;;;8.85;;
16770;SDS011;8503;52.472;13.344;2023-01-09T06:47:56;13.05;;;7.15;;
16770;SDS011;8503;52.472;13.344;2023-01-09T06:49:19;17.58;;;9.00;;
16770;SDS011;8503;52.472;13.344;2023-01-09T06:50:46;16.95;;;8.10;;
16770;SDS011;8503;52.472;13.344;2023-01-09T06:52:09;13.43;;;7.97;;
16770;SDS011;8503;52.472;13.344;2023-01-09T06:53:32;15.90;;;7.93;;
16770;SDS011;8503;52.472;13.344;2023-01-09T06:54:57;14.15;;;7.63;;
16770;SDS011;8503;52.472;13.344;2023-01-09T06:56:20;16.48;;;7.63;;
16770;SDS011;8503;52.472;13.344;2023-01-09T06:57:44;11.45;;;7.13;;
16770;SDS011;8503;52.472;13.344;2023-01-09T06:59:07;20.38;;;9.15;;
16770;SDS011;8503;52.472;13.344;2023-01-09T07:00:31;15.10;;;8.55;;
16770;SDS011;8503;52.472;13.344;2023-01-09T07:01:54;16.60;;;8.13;;
16770;SDS011;8503;52.472;13.344;2023-01-09T07:03:18;15.90;;;8.73;;
16770;SDS011;8503;52.472;13.344;2023-01-09T07:04:42;13.85;;;8.13;;
16770;SDS011;8503;52.472;13.344;2023-01-09T07:06:06;16.95;;;7.97;;
16770;SDS011;8503;52.472;13.344;2023-01-09T07:07:29;16.40;;;7.80;;
16770;SDS011;8503;52.472;13.344;2023-01-09T07:08:53;12.60;;;7.40;;
16770;SDS011;8503;52.472;13.344;2023-01-09T07:10:17;14.77;;;8.85;;
16770;SDS011;8503;52.472;13.344;2023-01-09T07:11:41;18.65;;;9.05;;
16770;SDS011;8503;52.472;13.344;2023-01-09T07:13:04;16.25;;;8.35;;
16770;SDS011;8503;52.472;13.344;2023-01-09T07:14:28;15.27;;;7.78;;
16770;SDS011;8503;52.472;13.344;2023-01-09T07:15:51;16.70;;;8.55;;
16770;SDS011;8503;52.472;13.344;2023-01-09T07:17:15;13.70;;;8.77;;
16770;SDS011;8503;52.472;13.344;2023-01-09T07:18:38;13.88;;;7.75;;
16770;SDS011;8503;52.472;13.344;2023-01-09T07:20:02;13.65;;;7.85;;
16770;SDS011;8503;52.472;13.344;2023-01-09T07:21:26;13.20;;;8.23;;
16770;SDS011;8503;52.472;13.344;2023-01-09T07:22:52;15.30;;;7.50;;
16770;SDS011;8503;52.472;13.344;2023-01-09T07:24:16;15.68;;;8.48;;
16770;SDS011;8503;52.472;13.344;2023-01-09T07:25:41;16.10;;;7.80;;
16770;SDS011;8503;52.472;13.344;2023-01-09T07:27:05;15.73;;;8.80;;
16770;SDS011;8503;52.472;13.344;2023-01-09T07:28:28;15.82;;;8.57;;
16770;SDS011;8503;52.472;13.344;2023-01-09T07:29:52;13.75;;;8.73;;
16770;SDS011;8503;52.472;13.344;2023-01-09T07:31:15;14.63;;;7.25;;
16770;SDS011;8503;52.472;13.344;2023-01-09T07:32:45;13.38;;;7.63;;
16770;SDS011;8503;52.472;13.344;2023-01-09T07:34:08;15.55;;;9.18;;
16770;SDS011;8503;52.472;13.344;2023-01-09T07:35:32;15.52;;;8.82;;
16770;SDS011;8503;52.472;13.344;2023-01-09T07:36:55;13.20;;;7.47;;
16770;SDS011;8503;52.472;13.344;2023-01-09T07:38:19;14.10;;;8.25;;
16770;SDS011;8503;52.472;13.344;2023-01-09T07:39:42;14.77;;;8.98;;
16770;SDS011;8503;52.472;13.344;2023-01-09T07:41:07;14.40;;;7.88;;
16770;SDS011;8503;52.472;13.344;2023-01-09T07:42:30;14.05;;;7.68;;
16770;SDS011;8503;52.472;13.344;2023-01-09T07:43:55;17.85;;;8.98;;
16770;SDS011;8503;52.472;13.344;2023-01-09T07:45:19;15.30;;;8.02;;
16770;SDS011;8503;52.472;13.344;2023-01-09T07:46:42;14.18;;;7.70;;
16770;SDS011;8503;52.472;13.344;2023-01-09T07:48:05;12.75;;;7.78;;
16770;SDS011;8503;52.472;13.344;2023-01-09T07:49:29;17.55;;;8.32;;
16770;SDS011;8503;52.472;13.344;2023-01-09T07:50:52;10.57;;;7.03;;
16770;SDS011;8503;52.472;13.344;2023-01-09T07:52:16;19.90;;;8.77;;
16770;SDS011;8503;52.472;13.344;2023-01-09T07:53:39;18.40;;;9.07;;
16770;SDS011;8503;52.472;13.344;2023-01-09T07:55:03;15.63;;;8.80;;
16770;SDS011;8503;52.472;13.344;2023-01-09T07:56:28;13.13;;;7.55;;
16770;SDS011;8503;52.472;13.344;2023-01-09T07:57:52;16.95;;;8.35;;
16770;SDS011;8503;52.472;13.344;2023-01-09T07:59:15;18.40;;;8.57;;
16770;SDS011;8503;52.472;13.344;2023-01-09T08:00:39;13.55;;;7.68;;
16770;SDS011;8503;52.472;13.344;2023-01-09T08:02:02;16.90;;;8.88;;
16770;SDS011;8503;52.472;13.344;2023-01-09T08:03:27;16.38;;;8.32;;
16770;SDS011;8503;52.472;13.344;2023-01-09T08:04:50;12.95;;;7.15;;
16770;SDS011;8503;52.472;13.344;2023-01-09T08:06:14;14.93;;;8.57;;
16770;SDS011;8503;52.472;13.344;2023-01-09T08:07:37;11.93;;;8.25;;
16770;SDS011;8503;52.472;13.344;2023-01-09T08:09:01;19.02;;;8.63;;
16770;SDS011;8503;52.472;13.344;2023-01-09T08:10:24;16.58;;;7.63;;
16770;SDS011;8503;52.472;13.344;2023-01-09T08:11:49;15.27;;;8.88;;
16770;SDS011;8503;52.472;13.344;2023-01-09T08:13:13;12.45;;;8.32;;
16770;SDS011;8503;52.472;13.344;2023-01-09T08:14:36;16.90;;;8.75;;
16770;SDS011;8503;52.472;13.344;2023-01-09T08:15:59;17.35;;;8.20;;
16770;SDS011;8503;52.472;13.344;2023-01-09T08:17:23;14.68;;;8.02;;
16770;SDS011;8503;52.472;13.344;2023-01-09T08:18:47;18.23;;;9.15;;
16770;SDS011;8503;52.472;13.344;2023-01-09T08:20:10;13.40;;;7.68;;
16770;SDS011;8503;52.472;13.344;2023-01-09T08:21:35;15.00;;;8.35;;
16770;SDS011;8503;52.472;13.344;2023-01-09T08:22:58;14.18;;;8.15;;
16770;SDS011;8503;52.472;13.344;2023-01-09T08:24:22;14.85;;;8.35;;
16770;SDS011;8503;52.472;13.344;2023-01-09T08:25:45;15.35;;;8.07;;
16770;SDS011;8503;52.472;13.344;2023-01-09T08:27:10;20.02;;;9.70;;
16770;SDS011;8503;52.472;13.344;2023-01-09T08:28:34;13.48;;;7.93;;
16770;SDS011;8503;52.472;13.344;2023-01-09T08:29:57;16.23;;;8.35;;
16770;SDS011;8503;52.472;13.344;2023-01-09T08:31:20;13.55;;;7.60;;